createdAt,value
2023-07-01T00:02:06.632Z,6.68
2023-07-01T00:04:33.885Z,6.97
2023-07-01T00:07:01.260Z,7.72
2023-07-01T00:09:28.535Z,6.55
2023-07-01T00:11:55.559Z,6.10
2023-07-01T00:14:22.775Z,7.00
2023-07-01T00:16:49.876Z,6.72
2023-07-01T00:19:17.322Z,6.85
2023-07-01T00:21:44.680Z,6.32
2023-07-01T00:24:11.753Z,6.68
2023-07-01T00:26:38.936Z,7.03
2023-07-01T00:29:06.052Z,5.75
2023-07-01T00:31:34.093Z,6.90
2023-07-01T00:34:01.285Z,6.30
2023-07-01T00:36:28.573Z,6.45
2023-07-01T00:38:55.745Z,6.43
2023-07-01T00:41:22.832Z,6.78
2023-07-01T00:43:50.142Z,6.75
2023-07-01T00:46:18.025Z,6.28
2023-07-01T00:48:45.600Z,7.13
2023-07-01T00:51:13.574Z,6.43
2023-07-01T00:53:41.634Z,7.03
2023-07-01T00:56:09.373Z,7.20
2023-07-01T00:58:36.886Z,6.07
2023-07-01T01:01:10.543Z,6.65
2023-07-01T01:03:51.476Z,6.28
2023-07-01T01:06:40.434Z,7.18
2023-07-01T01:09:22.748Z,7.43
2023-07-01T01:11:52.472Z,7.18
2023-07-01T01:14:19.949Z,6.40
2023-07-01T01:16:50.724Z,6.78
2023-07-01T01:19:37.411Z,6.38
2023-07-01T01:22:16.941Z,7.95
2023-07-01T01:24:48.845Z,6.65
2023-07-01T01:27:20.665Z,6.25
2023-07-01T01:29:48.034Z,6.88
2023-07-01T01:32:15.963Z,6.25
2023-07-01T01:34:43.210Z,6.63
2023-07-01T01:37:22.634Z,6.65
2023-07-01T01:39:55.056Z,6.75
2023-07-01T01:42:28.459Z,6.65
2023-07-01T01:44:57.561Z,6.03
2023-07-01T01:47:30.259Z,6.65
2023-07-01T01:50:02.444Z,6.80
2023-07-01T01:52:34.132Z,6.15
2023-07-01T01:55:02.425Z,5.97
2023-07-01T01:57:31.329Z,6.85
2023-07-01T01:59:58.546Z,5.95
2023-07-01T02:02:25.788Z,6.95
2023-07-01T02:04:53.117Z,6.88
2023-07-01T02:07:20.234Z,6.47
2023-07-01T02:09:47.358Z,7.45
2023-07-01T02:12:14.422Z,6.90
2023-07-01T02:14:41.528Z,6.78
2023-07-01T02:17:08.733Z,7.00
2023-07-01T02:19:55.670Z,6.55
2023-07-01T02:22:22.612Z,6.93
2023-07-01T02:24:49.709Z,7.18
2023-07-01T02:27:16.949Z,6.57
2023-07-01T02:29:45.800Z,5.90
2023-07-01T02:32:13.054Z,5.85
2023-07-01T02:34:40.094Z,6.85
2023-07-01T02:37:07.168Z,6.50
2023-07-01T02:39:34.342Z,7.88
2023-07-01T02:42:01.546Z,6.45
2023-07-01T02:44:28.566Z,5.95
2023-07-01T02:46:55.691Z,6.72
2023-07-01T02:49:22.804Z,6.55
2023-07-01T02:51:50.181Z,5.97
2023-07-01T02:54:17.248Z,5.80
2023-07-01T02:56:44.882Z,7.05
2023-07-01T02:59:12.884Z,5.90
2023-07-01T03:01:40.006Z,6.32
2023-07-01T03:04:19.545Z,6.40
2023-07-01T03:06:47.724Z,6.47
2023-07-01T03:09:15.928Z,6.15
2023-07-01T03:11:43.496Z,6.57
2023-07-01T03:14:10.801Z,6.13
2023-07-01T03:16:37.918Z,6.57
2023-07-01T03:19:06.968Z,6.00
2023-07-01T03:21:35.758Z,6.40
2023-07-01T03:24:03.013Z,6.00
2023-07-01T03:26:30.576Z,7.40
2023-07-01T03:28:58.109Z,6.38
2023-07-01T03:31:25.645Z,5.82
2023-07-01T03:33:52.840Z,6.18
2023-07-01T03:36:20.150Z,6.43
2023-07-01T03:38:47.173Z,5.85
2023-07-01T03:41:14.192Z,6.43
2023-07-01T03:43:41.386Z,6.57
2023-07-01T03:46:08.455Z,6.28
2023-07-01T03:48:35.659Z,6.18
2023-07-01T03:51:02.658Z,6.40
2023-07-01T03:53:29.764Z,5.68
2023-07-01T03:55:56.783Z,6.43
2023-07-01T03:58:26.317Z,5.47
2023-07-01T04:00:55.137Z,5.95
2023-07-01T04:03:25.414Z,5.72
2023-07-01T04:05:53.366Z,6.43
2023-07-01T04:08:21.988Z,6.13
2023-07-01T04:10:49.293Z,7.10
2023-07-01T04:13:16.610Z,5.97
2023-07-01T04:15:43.850Z,6.03
2023-07-01T04:18:10.845Z,6.47
2023-07-01T04:20:37.895Z,7.03
2023-07-01T04:23:05.007Z,6.55
2023-07-01T04:25:32.332Z,6.57
2023-07-01T04:28:00.429Z,7.38
2023-07-01T04:30:27.482Z,6.43
2023-07-01T04:32:54.553Z,6.75
2023-07-01T04:35:21.880Z,7.50
2023-07-01T04:37:48.886Z,7.05
2023-07-01T04:40:16.904Z,8.05
2023-07-01T04:42:52.963Z,7.95
2023-07-01T04:45:20.305Z,7.43
2023-07-01T04:47:49.080Z,6.95
2023-07-01T04:50:16.457Z,7.80
2023-07-01T04:52:45.151Z,7.70
2023-07-01T04:55:12.595Z,7.93
2023-07-01T04:57:40.073Z,8.18
2023-07-01T05:00:10.664Z,7.53
2023-07-01T05:02:38.588Z,8.35
2023-07-01T05:05:06.355Z,6.90
2023-07-01T05:07:33.940Z,7.78
2023-07-01T05:10:03.811Z,7.10
2023-07-01T05:12:32.019Z,6.85
2023-07-01T05:14:58.985Z,6.82
2023-07-01T05:17:26.008Z,7.30
2023-07-01T05:19:53.109Z,9.02
2023-07-01T05:22:20.247Z,6.93
2023-07-01T05:24:47.384Z,7.35
2023-07-01T05:27:14.508Z,7.03
2023-07-01T05:29:41.497Z,6.85
2023-07-01T05:32:08.879Z,6.32
2023-07-01T05:34:35.909Z,6.22
2023-07-01T05:37:03.232Z,6.35
2023-07-01T05:39:31.463Z,7.53
2023-07-01T05:41:58.795Z,6.40
2023-07-01T05:44:26.346Z,6.95
2023-07-01T05:46:54.368Z,6.95
2023-07-01T05:49:21.575Z,6.82
2023-07-01T05:51:48.665Z,7.05
2023-07-01T05:54:15.779Z,6.90
2023-07-01T05:56:43.065Z,5.63
2023-07-01T05:59:10.431Z,6.88
2023-07-01T06:01:37.657Z,6.70
2023-07-01T06:04:05.905Z,6.30
2023-07-01T06:06:33.363Z,7.18
2023-07-01T06:09:00.848Z,6.30
2023-07-01T06:11:28.173Z,7.43
2023-07-01T06:13:55.285Z,6.35
2023-07-01T06:16:22.606Z,6.45
2023-07-01T06:18:49.758Z,6.25
2023-07-01T06:21:16.899Z,6.00
2023-07-01T06:23:44.209Z,6.40
2023-07-01T06:26:11.399Z,6.57
2023-07-01T06:28:42.997Z,6.60
2023-07-01T06:31:10.235Z,6.30
2023-07-01T06:33:40.034Z,6.55
2023-07-01T06:36:10.350Z,6.30
2023-07-01T06:38:37.563Z,5.57
2023-07-01T06:41:04.827Z,5.65
2023-07-01T06:43:32.064Z,6.88
2023-07-01T06:46:00.811Z,6.63
2023-07-01T06:48:28.135Z,6.38
2023-07-01T06:50:55.178Z,5.88
2023-07-01T06:53:22.526Z,6.35
2023-07-01T06:55:50.163Z,5.68
2023-07-01T06:58:17.251Z,5.95
2023-07-01T07:00:44.928Z,5.68
2023-07-01T07:03:12.504Z,6.05
2023-07-01T07:05:39.650Z,5.68
2023-07-01T07:08:07.325Z,7.20
2023-07-01T07:10:35.131Z,6.15
2023-07-01T07:13:02.562Z,6.50
2023-07-01T07:15:29.672Z,5.35
2023-07-01T07:17:56.862Z,5.97
2023-07-01T07:20:24.156Z,7.03
2023-07-01T07:22:51.318Z,6.78
2023-07-01T07:25:18.478Z,6.53
2023-07-01T07:27:50.509Z,7.05
2023-07-01T07:30:17.672Z,6.43
2023-07-01T07:32:45.472Z,7.10
2023-07-01T07:35:12.638Z,6.53
2023-07-01T07:37:39.628Z,5.70
2023-07-01T07:40:09.017Z,6.95
2023-07-01T07:42:36.944Z,6.57
2023-07-01T07:45:05.229Z,6.10
2023-07-01T07:47:34.094Z,6.57
2023-07-01T07:50:02.880Z,5.72
2023-07-01T07:52:33.733Z,6.25
2023-07-01T07:55:01.607Z,5.97
2023-07-01T07:57:32.874Z,5.78
2023-07-01T08:00:00.797Z,5.68
2023-07-01T08:02:28.998Z,5.70
2023-07-01T08:04:56.176Z,5.35
2023-07-01T08:07:23.274Z,5.60
2023-07-01T08:09:50.308Z,6.32
2023-07-01T08:12:17.439Z,6.20
2023-07-01T08:14:44.511Z,6.70
2023-07-01T08:17:11.624Z,5.97
2023-07-01T08:19:38.814Z,5.40
2023-07-01T08:22:05.964Z,5.60
2023-07-01T08:24:33.052Z,6.32
2023-07-01T08:27:00.903Z,5.75
2023-07-01T08:29:28.210Z,6.10
2023-07-01T08:31:55.447Z,4.90
2023-07-01T08:34:22.796Z,5.72
2023-07-01T08:36:50.035Z,6.07
2023-07-01T08:39:17.817Z,4.95
2023-07-01T08:42:05.556Z,5.57
2023-07-01T08:44:36.067Z,6.20
2023-07-01T08:47:05.502Z,5.05
2023-07-01T08:49:35.383Z,6.63
2023-07-01T08:52:12.065Z,4.90
2023-07-01T08:57:10.572Z,4.15
2023-07-01T09:02:05.181Z,5.30
2023-07-01T09:04:32.574Z,5.10
2023-07-01T09:07:00.795Z,5.93
2023-07-01T09:09:28.477Z,5.30
2023-07-01T09:11:55.522Z,5.32
2023-07-01T09:14:23.171Z,4.68
2023-07-01T09:16:50.357Z,5.15
2023-07-01T09:19:22.840Z,5.35
2023-07-01T09:21:50.029Z,5.25
2023-07-01T09:24:17.258Z,5.07
2023-07-01T09:26:44.405Z,5.32
2023-07-01T09:29:16.540Z,6.10
2023-07-01T09:31:53.024Z,5.32
2023-07-01T09:34:20.423Z,4.88
2023-07-01T09:36:47.564Z,5.05
2023-07-01T09:39:14.724Z,5.38
2023-07-01T09:41:41.792Z,4.75
2023-07-01T09:44:20.471Z,5.47
2023-07-01T09:46:48.038Z,4.85
2023-07-01T09:49:15.741Z,4.72
2023-07-01T09:51:51.379Z,4.55
2023-07-01T09:54:30.041Z,5.10
2023-07-01T09:56:59.213Z,5.03
2023-07-01T09:59:27.779Z,5.57
2023-07-01T10:01:57.449Z,5.03
2023-07-01T10:04:30.313Z,5.07
2023-07-01T10:06:58.629Z,5.45
2023-07-01T10:09:28.455Z,4.57
2023-07-01T10:11:59.440Z,4.70
2023-07-01T10:14:29.694Z,5.35
2023-07-01T10:16:57.570Z,5.22
2023-07-01T10:19:35.557Z,5.20
2023-07-01T10:22:28.147Z,5.55
2023-07-01T10:25:07.219Z,5.22
2023-07-01T10:27:41.214Z,4.90
2023-07-01T10:30:10.293Z,4.75
2023-07-01T10:32:37.583Z,5.28
2023-07-01T10:35:04.724Z,5.88
2023-07-01T10:37:34.325Z,5.10
2023-07-01T10:40:09.109Z,5.35
2023-07-01T10:42:37.795Z,5.20
2023-07-01T10:45:14.459Z,5.20
2023-07-01T10:48:02.826Z,4.63
2023-07-01T10:50:30.652Z,5.38
2023-07-01T10:53:00.751Z,5.53
2023-07-01T10:55:48.942Z,5.55
2023-07-01T10:58:22.728Z,5.15
2023-07-01T11:00:55.681Z,5.07
2023-07-01T11:03:35.752Z,4.90
2023-07-01T11:06:08.826Z,5.38
2023-07-01T11:08:45.494Z,4.82
2023-07-01T11:11:18.599Z,4.97
2023-07-01T11:14:11.275Z,4.53
2023-07-01T11:16:39.803Z,5.13
2023-07-01T11:19:09.412Z,4.55
2023-07-01T11:21:38.102Z,4.65
2023-07-01T11:24:06.570Z,4.72
2023-07-01T11:26:36.744Z,5.13
2023-07-01T11:29:09.837Z,5.25
2023-07-01T11:31:41.374Z,4.53
2023-07-01T11:34:08.843Z,4.90
2023-07-01T11:36:40.928Z,4.80
2023-07-01T11:39:10.864Z,4.47
2023-07-01T11:41:39.828Z,5.05
2023-07-01T11:44:12.220Z,4.85
2023-07-01T11:46:42.130Z,4.85
2023-07-01T11:49:18.267Z,4.97
2023-07-01T11:51:50.595Z,4.70
2023-07-01T11:54:21.422Z,5.10
2023-07-01T11:56:49.814Z,6.03
2023-07-01T11:59:31.546Z,5.78
2023-07-01T12:02:00.915Z,5.55
2023-07-01T12:07:09.489Z,5.05
2023-07-01T12:09:38.294Z,4.95
2023-07-01T12:12:05.948Z,4.57
2023-07-01T12:14:33.206Z,5.70
2023-07-01T12:17:01.833Z,4.65
2023-07-01T12:19:31.301Z,5.78
2023-07-01T12:22:00.411Z,5.57
2023-07-01T12:24:30.891Z,5.40
2023-07-01T12:29:26.728Z,5.07
2023-07-01T12:31:55.502Z,5.38
2023-07-01T12:34:23.015Z,5.10
2023-07-01T12:36:50.094Z,5.55
2023-07-01T12:39:19.230Z,5.22
2023-07-01T12:41:53.761Z,5.65
2023-07-01T12:44:20.848Z,5.25
2023-07-01T12:46:48.159Z,6.35
2023-07-01T12:49:15.632Z,5.70
2023-07-01T12:51:44.325Z,5.43
2023-07-01T12:54:18.231Z,5.50
2023-07-01T12:56:46.571Z,6.20
2023-07-01T12:59:13.690Z,5.85
2023-07-01T13:01:44.156Z,4.97
2023-07-01T13:04:12.295Z,5.90
2023-07-01T13:06:40.738Z,4.63
2023-07-01T13:09:11.401Z,4.78
2023-07-01T13:11:40.334Z,5.78
2023-07-01T13:14:14.073Z,5.00
2023-07-01T13:16:43.412Z,5.80
2023-07-01T13:19:15.450Z,4.97
2023-07-01T13:21:45.635Z,5.20
2023-07-01T13:24:16.092Z,4.25
2023-07-01T13:26:45.536Z,4.45
2023-07-01T13:29:20.404Z,4.80
2023-07-01T13:31:49.401Z,4.38
2023-07-01T13:34:23.314Z,4.38
2023-07-01T13:36:54.186Z,4.63
2023-07-01T13:39:37.141Z,5.00
2023-07-01T13:42:04.606Z,5.00
2023-07-01T13:44:31.637Z,4.53
2023-07-01T13:46:59.050Z,4.63
2023-07-01T13:49:30.131Z,4.40
2023-07-01T13:51:57.694Z,4.97
2023-07-01T13:54:26.959Z,5.07
2023-07-01T13:57:02.588Z,4.43
2023-07-01T13:59:31.724Z,4.70
2023-07-01T14:02:12.028Z,4.95
2023-07-01T14:04:39.262Z,4.85
2023-07-01T14:07:07.102Z,4.63
2023-07-01T14:09:37.883Z,4.97
2023-07-01T14:12:05.414Z,4.45
2023-07-01T14:14:34.259Z,3.92
2023-07-01T14:17:02.268Z,4.85
2023-07-01T14:19:29.786Z,5.18
2023-07-01T14:21:58.101Z,4.40
2023-07-01T14:24:28.777Z,5.28
2023-07-01T14:27:00.908Z,4.95
2023-07-01T14:29:28.740Z,4.90
2023-07-01T14:31:57.988Z,9.88
2023-07-01T14:34:32.900Z,5.10
2023-07-01T14:37:00.996Z,5.45
2023-07-01T14:39:30.627Z,4.80
2023-07-01T14:41:57.662Z,5.53
2023-07-01T14:44:25.419Z,4.55
2023-07-01T14:46:52.661Z,4.70
2023-07-01T14:49:19.853Z,4.63
2023-07-01T14:51:47.033Z,4.53
2023-07-01T14:54:14.128Z,4.10
2023-07-01T14:56:41.253Z,4.28
2023-07-01T14:59:08.394Z,4.45
2023-07-01T15:01:35.629Z,4.78
2023-07-01T15:04:02.899Z,5.03
2023-07-01T15:06:30.547Z,5.32
2023-07-01T15:08:57.729Z,4.43
2023-07-01T15:11:24.782Z,4.80
2023-07-01T15:13:51.859Z,4.60
2023-07-01T15:16:20.688Z,4.55
2023-07-01T15:18:48.050Z,4.38
2023-07-01T15:21:15.199Z,4.35
2023-07-01T15:23:42.392Z,4.45
2023-07-01T15:26:09.469Z,3.97
2023-07-01T15:28:36.685Z,4.57
2023-07-01T15:31:07.505Z,4.38
2023-07-01T15:33:35.294Z,4.35
2023-07-01T15:36:02.671Z,4.43
2023-07-01T15:38:30.158Z,4.60
2023-07-01T15:40:57.350Z,3.80
2023-07-01T15:43:24.506Z,3.97
2023-07-01T15:45:53.072Z,4.03
2023-07-01T15:48:22.525Z,4.43
2023-07-01T15:50:49.685Z,4.65
2023-07-01T15:53:17.734Z,4.35
2023-07-01T15:55:45.076Z,4.38
2023-07-01T15:58:12.288Z,4.63
2023-07-01T16:00:40.255Z,3.97
2023-07-01T16:03:09.669Z,4.50
2023-07-01T16:05:37.551Z,4.30
2023-07-01T16:08:06.616Z,4.40
2023-07-01T16:10:34.008Z,5.15
2023-07-01T16:13:07.314Z,4.10
2023-07-01T16:15:56.274Z,4.35
2023-07-01T16:18:43.386Z,5.13
2023-07-01T16:21:13.697Z,5.13
2023-07-01T16:23:48.085Z,4.90
2023-07-01T16:26:43.686Z,4.75
2023-07-01T16:29:11.015Z,4.75
2023-07-01T16:31:41.017Z,4.50
2023-07-01T16:34:09.504Z,4.68
2023-07-01T16:36:37.149Z,4.55
2023-07-01T16:39:13.558Z,4.60
2023-07-01T16:44:07.889Z,4.50
2023-07-01T16:46:39.745Z,4.38
2023-07-01T16:49:09.653Z,5.18
2023-07-01T16:51:38.365Z,4.90
2023-07-01T16:54:12.848Z,5.60
2023-07-01T16:56:44.302Z,4.40
2023-07-01T16:59:24.164Z,4.45
2023-07-01T17:01:52.173Z,5.07
2023-07-01T17:04:33.424Z,4.35
2023-07-01T17:07:01.068Z,4.35
2023-07-01T17:09:38.240Z,4.35
2023-07-01T17:12:07.076Z,5.03
2023-07-01T17:14:44.286Z,4.43
2023-07-01T17:17:35.050Z,4.47
2023-07-01T17:20:04.969Z,4.32
2023-07-01T17:22:35.534Z,4.53
2023-07-01T17:25:07.053Z,4.55
2023-07-01T17:27:34.507Z,5.45
2023-07-01T17:30:02.184Z,4.90
2023-07-01T17:32:35.306Z,4.82
2023-07-01T17:35:24.682Z,4.78
2023-07-01T17:37:52.774Z,4.20
2023-07-01T17:40:21.449Z,4.50
2023-07-01T17:42:52.920Z,4.10
2023-07-01T17:45:20.936Z,4.72
2023-07-01T17:47:48.963Z,4.18
2023-07-01T17:50:21.408Z,3.83
2023-07-01T17:52:51.234Z,3.85
2023-07-01T17:55:18.775Z,4.35
2023-07-01T17:57:56.143Z,4.47
2023-07-01T18:00:25.790Z,3.88
2023-07-01T18:02:55.106Z,3.33
2023-07-01T18:05:22.740Z,3.88
2023-07-01T18:07:50.103Z,3.42
2023-07-01T18:10:20.041Z,4.28
2023-07-01T18:12:47.240Z,3.35
2023-07-01T18:15:16.319Z,3.75
2023-07-01T18:17:46.176Z,3.33
2023-07-01T18:20:14.002Z,3.72
2023-07-01T18:22:41.138Z,3.47
2023-07-01T18:25:08.544Z,3.70
2023-07-01T18:27:35.881Z,3.90
2023-07-01T18:30:05.902Z,3.42
2023-07-01T18:32:42.628Z,3.65
2023-07-01T18:35:13.159Z,3.75
2023-07-01T18:37:40.245Z,3.58
2023-07-01T18:40:07.830Z,3.47
2023-07-01T18:42:34.858Z,4.05
2023-07-01T18:45:02.119Z,3.33
2023-07-01T18:47:31.104Z,3.85
2023-07-01T18:49:58.209Z,3.92
2023-07-01T18:52:25.429Z,3.80
2023-07-01T18:54:52.897Z,3.13
2023-07-01T18:57:23.419Z,4.57
2023-07-01T18:59:50.751Z,3.55
2023-07-01T19:02:19.064Z,3.35
2023-07-01T19:04:46.323Z,4.03
2023-07-01T19:07:14.182Z,3.58
2023-07-01T19:09:41.465Z,3.45
2023-07-01T19:12:09.037Z,3.42
2023-07-01T19:14:36.112Z,3.58
2023-07-01T19:17:04.027Z,3.33
2023-07-01T19:19:31.303Z,3.95
2023-07-01T19:21:58.399Z,3.60
2023-07-01T19:24:25.539Z,3.63
2023-07-01T19:26:52.590Z,3.83
2023-07-01T19:29:27.666Z,4.03
2023-07-01T19:31:55.747Z,3.42
2023-07-01T19:34:23.070Z,4.30
2023-07-01T19:36:50.116Z,4.53
2023-07-01T19:39:17.210Z,3.47
2023-07-01T19:41:44.285Z,3.83
2023-07-01T19:44:11.379Z,3.45
2023-07-01T19:46:38.902Z,4.18
2023-07-01T19:49:06.138Z,4.47
2023-07-01T19:51:33.434Z,4.20
2023-07-01T19:54:00.636Z,3.80
2023-07-01T19:56:27.891Z,3.80
2023-07-01T19:58:55.092Z,3.80
2023-07-01T20:01:22.235Z,4.00
2023-07-01T20:03:50.227Z,4.18
2023-07-01T20:06:17.491Z,4.03
2023-07-01T20:08:44.544Z,3.60
2023-07-01T20:11:11.659Z,4.97
2023-07-01T20:13:38.867Z,4.47
2023-07-01T20:16:06.365Z,4.30
2023-07-01T20:18:34.274Z,4.22
2023-07-01T20:21:01.563Z,4.90
2023-07-01T20:23:28.672Z,4.30
2023-07-01T20:25:55.786Z,4.80
2023-07-01T20:28:22.957Z,4.18
2023-07-01T20:30:50.066Z,4.75
2023-07-01T20:33:17.177Z,4.97
2023-07-01T20:35:44.479Z,4.75
2023-07-01T20:38:11.567Z,4.18
2023-07-01T20:40:38.786Z,4.85
2023-07-01T20:43:10.672Z,4.80
2023-07-01T20:45:37.776Z,4.97
2023-07-01T20:48:05.381Z,4.47
2023-07-01T20:50:32.657Z,5.00
2023-07-01T20:52:59.790Z,4.47
2023-07-01T20:55:26.902Z,4.72
2023-07-01T20:57:54.065Z,4.43
2023-07-01T21:00:21.426Z,4.45
2023-07-01T21:02:49.378Z,4.47
2023-07-01T21:05:16.653Z,4.68
2023-07-01T21:07:43.930Z,4.65
2023-07-01T21:10:12.362Z,4.57
2023-07-01T21:12:40.002Z,4.60
2023-07-01T21:15:07.647Z,4.95
2023-07-01T21:17:35.015Z,5.05
2023-07-01T21:20:02.307Z,4.15
2023-07-01T21:22:32.899Z,4.35
2023-07-01T21:25:00.059Z,4.55
2023-07-01T21:27:54.343Z,4.65
2023-07-01T21:30:30.719Z,4.80
2023-07-01T21:32:58.012Z,5.32
2023-07-01T21:35:30.191Z,4.68
2023-07-01T21:37:58.220Z,4.03
2023-07-01T21:40:28.829Z,4.28
2023-07-01T21:42:58.172Z,4.10
2023-07-01T21:45:33.164Z,4.60
2023-07-01T21:48:01.016Z,4.63
2023-07-01T21:50:28.068Z,4.47
2023-07-01T21:52:55.828Z,4.55
2023-07-01T21:55:23.073Z,4.65
2023-07-01T21:57:58.974Z,4.32
2023-07-01T22:00:26.170Z,4.65
2023-07-01T22:02:58.667Z,5.07
2023-07-01T22:05:26.058Z,4.60
2023-07-01T22:07:53.676Z,4.75
2023-07-01T22:10:20.717Z,4.30
2023-07-01T22:12:47.975Z,5.03
2023-07-01T22:15:17.526Z,4.60
2023-07-01T22:17:45.118Z,5.05
2023-07-01T22:20:12.453Z,5.18
2023-07-01T22:22:39.500Z,4.70
2023-07-01T22:25:06.817Z,4.43
2023-07-01T22:27:34.774Z,4.97
2023-07-01T22:30:02.054Z,4.85
2023-07-01T22:32:33.637Z,4.68
2023-07-01T22:35:00.828Z,5.15
2023-07-01T22:37:28.005Z,4.55
2023-07-01T22:39:55.127Z,5.25
2023-07-01T22:42:22.560Z,5.28
2023-07-01T22:44:49.944Z,4.68
2023-07-01T22:47:17.156Z,4.60
2023-07-01T22:49:44.330Z,4.72
2023-07-01T22:52:11.371Z,5.30
2023-07-01T22:54:39.144Z,5.03
2023-07-01T22:57:06.480Z,5.25
2023-07-01T22:59:33.504Z,4.93
2023-07-01T23:02:00.759Z,5.07
2023-07-01T23:04:28.031Z,5.40
2023-07-01T23:06:55.184Z,5.05
2023-07-01T23:09:22.229Z,4.85
2023-07-01T23:11:49.469Z,5.20
2023-07-01T23:14:16.462Z,4.95
2023-07-01T23:16:43.638Z,5.13
2023-07-01T23:19:12.414Z,5.00
2023-07-01T23:21:39.520Z,4.32
2023-07-01T23:24:06.674Z,4.53
2023-07-01T23:26:36.600Z,4.50
2023-07-01T23:29:04.749Z,4.68
2023-07-01T23:31:31.922Z,4.57
2023-07-01T23:33:59.072Z,5.38
2023-07-01T23:36:26.253Z,6.03
2023-07-01T23:38:53.507Z,4.28
2023-07-01T23:41:20.557Z,4.80
2023-07-01T23:43:47.607Z,4.35
2023-07-01T23:46:14.843Z,4.55
2023-07-01T23:48:41.890Z,4.82
2023-07-01T23:51:08.934Z,4.32
2023-07-01T23:53:36.012Z,4.00
2023-07-01T23:56:05.457Z,4.20
2023-07-01T23:58:33.448Z,4.88
